Decoded Metar for CYSF (STONY RAPIDS in SK, CANADA) (IATA:YSF) | Meteo·Mobile Aviation Weather
aviador You're here:

CYSF Decoded Metar

STONY RAPIDS in SK, CANADA
Report Time2018-12-15 00:00:00
UTC Time2018-12-15 00:33:11
Flight Rules vfr VFR
Wind080° at 03 kt
W.Decomp.*RWY 06: 3.0 kt HW 0.5 kt RCW
W.Rank080° ranks 2
Current wind is below 080° avg. (6.5)
Visibility9999 m
Phenomena:N/A
Clouds:N/A
Expected CloudBase > 800 ft AGL from Temp-Dew spread
CeilingNone
Temp-21°C (ISA -34)
Dew Point-23°C (84% RH)
AAT-25.8°C
QNH1004 hPa
Density Alt-3,251 ft
Elevation820 ft
Report Wrong Elevation
Raw Report
CYSF 150000Z AUTO 08003KT 9SM CLR M21/M23 A2965 RMK SLP069=

Extra information for CYSF:More info

Metar Taf Metar & Taf Last 4 Metars F.Rules Stats Wind Profile Meteogram Temp Stats Airport Information Weather charts Add Link Nearby VenuesMetar ALERT Operation Metar Decoded Social comments